Terminal Aerodrome Forecast
Issued by NWS

Home | Current Version | Previous Version | Text Only | Print | Product List | Glossary On
Versions: 1 2 3 4 5 6 7 8 9 10 11 12 13 14 15 16 17 18 19 20 21 22 23 24 25 26 27 28
807
FTPA31 PHFO 170521
TAFMDY
TAF
PMDY 170521Z 1706/1806 11022G28KT P6SM SCT018 OVC035
     FM171300 13023G32KT 6SM -RA SCT012 BKN025 OVC045
     FM171900 17027G35KT 3SM -RA SCT008 OVC012
     FM180300 19020G25KT P6SM VCSH SCT010 BKN025 OVC040=

USA.gov is the U.S. government's official web portal to all federal, state and local government web resources and services.